Time;durP1;ratioP1;P1;durP2;ratioP2;P2;SDS_P1;SDS_P2;PMS_P1;PMS_P2;Temp;Humidity;BMP_temperature;BMP_pressure;BME280_temperature;BME280_humidity;BME280_pressure;Samples;Min_cycle;Max_cycle;Signal;HPM_P1;HPM_P2
2021/11/22 00:01:11;;;;;;;2.97;2.08;;;;;;;1.90;74.84;97843.78;4973816;28;20023;-58
2021/11/22 00:03:57;;;;;;;2.88;1.88;;;;;;;2.04;74.42;97855.50;4982202;28;20054;-58
2021/11/22 00:06:43;;;;;;;2.95;1.98;;;;;;;2.10;74.79;97849.44;4978609;28;20039;-58
2021/11/22 00:09:29;;;;;;;2.05;1.85;;;;;;;1.99;75.03;97837.69;4966311;28;20030;-58
2021/11/22 00:12:15;;;;;;;3.60;1.73;;;;;;;2.06;74.28;97841.00;4968790;28;20031;-59
2021/11/22 00:15:05;;;;;;;2.20;1.85;;;;;;;1.73;74.51;97792.19;4981203;28;20045;-58
2021/11/22 00:17:52;;;;;;;2.08;1.83;;;;;;;2.11;74.32;97851.97;4978718;28;20065;-59
2021/11/22 00:20:38;;;;;;;3.95;1.85;;;;;;;2.21;74.98;97861.16;4970150;28;20031;-58
2021/11/22 00:23:24;;;;;;;2.35;2.00;;;;;;;2.18;73.87;97862.91;4983798;28;20259;-59
2021/11/22 00:26:10;;;;;;;2.10;1.90;;;;;;;2.09;74.17;97861.34;4981808;28;20342;-59
2021/11/22 00:28:56;;;;;;;2.33;2.10;;;;;;;2.12;73.78;97858.75;4985666;28;20035;-59
2021/11/22 00:31:44;;;;;;;3.00;2.33;;;;;;;2.21;73.30;97866.25;4984476;28;20026;-59
2021/11/22 00:34:31;;;;;;;2.20;2.00;;;;;;;2.08;74.06;97872.44;4976478;28;20468;-59
2021/11/22 00:37:22;;;;;;;4.13;1.95;;;;;;;2.13;73.42;97864.72;4983145;28;20069;-58
2021/11/22 00:40:10;;;;;;;2.28;1.90;;;;;;;2.23;73.10;97892.59;4982811;28;20324;-57
2021/11/22 00:42:57;;;;;;;1.98;1.77;;;;;;;2.10;72.29;97880.91;4985734;28;20031;-57
2021/11/22 00:45:43;;;;;;;2.72;2.20;;;;;;;2.09;72.81;97880.94;4984469;28;20073;-58
2021/11/22 00:48:29;;;;;;;2.50;2.00;;;;;;;2.17;72.86;97879.13;4982939;28;20212;-58
2021/11/22 00:51:16;;;;;;;2.42;1.90;;;;;;;2.13;73.02;97895.34;4985274;28;20045;-58
2021/11/22 00:54:02;;;;;;;2.00;1.80;;;;;;;2.11;71.86;97887.72;4983915;28;20023;-58
2021/11/22 00:56:48;;;;;;;2.08;1.88;;;;;;;2.23;72.41;97899.44;4985393;28;20026;-58
2021/11/22 00:59:34;;;;;;;3.35;2.00;;;;;;;2.20;71.95;97897.75;4984880;28;20027;-59
2021/11/22 01:02:22;;;;;;;2.70;2.30;;;;;;;2.18;72.12;97896.97;4968746;28;20070;-59
2021/11/22 01:05:09;;;;;;;2.40;2.08;;;;;;;2.20;71.60;97902.88;4983690;28;20031;-59
2021/11/22 01:07:55;;;;;;;2.03;1.83;;;;;;;2.07;71.69;97902.22;4983460;28;20197;-59
2021/11/22 01:10:41;;;;;;;2.55;2.00;;;;;;;2.09;69.80;97893.72;4985273;28;20034;-59
2021/11/22 01:13:27;;;;;;;2.55;1.95;;;;;;;2.05;69.84;97890.34;4984978;28;20038;-58
2021/11/22 01:16:14;;;;;;;1.88;1.77;;;;;;;2.09;70.18;97894.53;4984714;28;20065;-57
2021/11/22 01:19:01;;;;;;;2.65;2.38;;;;;;;2.04;69.77;97888.69;4984595;28;20065;-58
2021/11/22 01:21:47;;;;;;;3.88;2.40;;;;;;;2.07;69.63;97893.75;4983867;28;20362;-58
2021/11/22 01:24:33;;;;;;;3.05;2.15;;;;;;;2.16;70.30;97901.22;4983593;28;20053;-58
2021/11/22 01:27:19;;;;;;;2.47;2.10;;;;;;;2.11;69.83;97894.53;4982734;28;20323;-58
2021/11/22 01:30:11;;;;;;;3.28;2.15;;;;;;;2.13;70.00;97883.41;4985448;28;20027;-58
2021/11/22 01:32:57;;;;;;;2.42;2.22;;;;;;;2.08;69.88;97895.41;4983178;28;20034;-58
2021/11/22 01:35:44;;;;;;;2.22;2.08;;;;;;;2.20;69.94;97907.16;4982707;28;20208;-58
2021/11/22 01:38:31;;;;;;;2.60;2.40;;;;;;;2.22;69.76;97913.91;4976909;28;20046;-58
2021/11/22 01:41:17;;;;;;;2.15;1.95;;;;;;;2.16;69.44;97902.97;4983207;28;20046;-58
2021/11/22 01:44:03;;;;;;;2.60;2.40;;;;;;;2.11;69.24;97903.03;4984341;28;20015;-57
2021/11/22 01:46:49;;;;;;;3.05;2.38;;;;;;;2.14;69.62;97897.88;4983214;28;20042;-58
2021/11/22 01:49:35;;;;;;;2.17;1.98;;;;;;;2.19;69.60;97905.44;4983750;28;20031;-59
2021/11/22 01:52:21;;;;;;;2.40;2.20;;;;;;;2.20;70.06;97910.53;4982731;28;20057;-58
2021/11/22 01:55:13;;;;;;;2.22;2.03;;;;;;;2.10;69.59;97906.44;4983900;28;20022;-59
2021/11/22 01:58:01;;;;;;;1.95;1.70;;;;;;;1.60;69.43;97836.66;4983680;28;20027;-59
2021/11/22 02:00:52;;;;;;;2.38;2.17;;;;;;;2.05;69.97;97903.97;4983903;28;20399;-59
2021/11/22 02:03:38;;;;;;;2.78;1.80;;;;;;;2.14;69.59;97915.75;4982439;28;20038;-58
2021/11/22 02:06:24;;;;;;;2.60;2.00;;;;;;;2.12;69.62;97921.75;4983352;28;20212;-58
2021/11/22 02:09:10;;;;;;;2.60;2.20;;;;;;;2.13;70.83;97921.72;4982591;28;20090;-58
2021/11/22 02:11:56;;;;;;;2.30;1.92;;;;;;;2.03;70.57;97926.13;4983572;28;20058;-58
2021/11/22 02:14:42;;;;;;;2.35;2.15;;;;;;;2.04;70.43;97932.09;4983413;28;20023;-59
2021/11/22 02:17:28;;;;;;;2.38;2.00;;;;;;;2.04;71.70;97926.97;4982793;28;20023;-59
2021/11/22 02:20:18;;;;;;;2.85;2.10;;;;;;;1.69;70.88;97873.03;4978421;28;20030;-59
2021/11/22 02:23:08;;;;;;;2.47;2.28;;;;;;;1.65;71.80;97873.13;4983718;28;20027;-58
2021/11/22 02:25:54;;;;;;;2.83;1.83;;;;;;;1.84;72.34;97938.34;4983733;28;20315;-58
2021/11/22 02:28:41;;;;;;;3.25;2.00;;;;;;;1.93;72.77;97941.63;4981176;28;20030;-58
2021/11/22 02:31:27;;;;;;;3.33;2.10;;;;;;;2.07;72.56;97952.47;4982373;28;20027;-58
2021/11/22 02:34:13;;;;;;;2.63;2.42;;;;;;;2.04;73.87;97961.00;4981320;28;20031;-58
2021/11/22 02:36:59;;;;;;;2.85;2.28;;;;;;;1.93;74.87;97962.03;4983357;28;20015;-58
2021/11/22 02:39:45;;;;;;;2.55;2.35;;;;;;;1.97;75.47;97968.78;4982983;28;20154;-59
2021/11/22 02:42:34;;;;;;;5.13;2.33;;;;;;;1.95;75.78;97955.19;4983050;28;20027;-59
2021/11/22 02:45:20;;;;;;;2.72;2.53;;;;;;;1.99;76.19;97964.50;4964967;28;20055;-59
2021/11/22 02:48:06;;;;;;;2.95;2.50;;;;;;;1.95;76.57;97973.06;4982776;28;20034;-59
2021/11/22 02:50:52;;;;;;;4.85;2.75;;;;;;;1.99;76.69;97977.25;4982742;28;20240;-59
2021/11/22 02:53:38;;;;;;;2.47;2.20;;;;;;;1.86;76.56;97969.78;4982384;28;20187;-59
2021/11/22 02:56:29;;;;;;;3.00;2.20;;;;;;;1.69;76.94;97924.06;4982717;28;20601;-59
2021/11/22 02:59:15;;;;;;;3.70;2.90;;;;;;;1.95;77.07;97978.16;4978602;28;20090;-59
2021/11/22 03:02:03;;;;;;;3.05;2.40;;;;;;;1.83;76.71;97949.41;4974541;28;20223;-58
2021/11/22 03:04:49;;;;;;;2.80;2.55;;;;;;;1.93;76.03;97988.41;4967947;28;20026;-59
2021/11/22 03:07:35;;;;;;;3.55;2.47;;;;;;;1.98;75.62;97988.31;4981028;28;20023;-59
2021/11/22 03:10:23;;;;;;;3.20;2.25;;;;;;;1.58;74.80;97932.75;4980996;28;20082;-59
2021/11/22 03:13:10;;;;;;;2.58;2.33;;;;;;;1.95;75.76;98008.78;4981787;28;20093;-59
2021/11/22 03:15:56;;;;;;;2.40;2.20;;;;;;;1.98;74.78;98003.66;4978469;28;20023;-59
2021/11/22 03:18:42;;;;;;;1.92;1.83;;;;;;;1.81;75.04;97999.63;4970396;28;20029;-59
2021/11/22 03:21:28;;;;;;;2.92;2.03;;;;;;;1.69;74.03;98003.16;4981553;28;20127;-58
2021/11/22 03:24:15;;;;;;;2.53;2.33;;;;;;;1.82;74.49;98014.06;4966677;28;20106;-58
2021/11/22 03:27:02;;;;;;;2.25;2.08;;;;;;;1.98;73.55;98024.94;4983251;28;20069;-58
2021/11/22 03:29:48;;;;;;;1.65;1.50;;;;;;;1.95;73.57;98022.41;4982186;28;20038;-58
2021/11/22 03:32:34;;;;;;;2.00;1.90;;;;;;;1.85;72.84;98019.16;4981594;28;20086;-58
2021/11/22 03:35:21;;;;;;;2.47;2.00;;;;;;;1.98;72.75;98027.47;4973165;28;20023;-58
2021/11/22 03:38:09;;;;;;;2.30;2.10;;;;;;;1.81;71.92;98021.75;4981448;28;20220;-58
2021/11/22 03:40:56;;;;;;;2.50;2.30;;;;;;;1.81;72.03;98032.81;4980465;28;20057;-58
2021/11/22 03:43:51;;;;;;;2.15;1.92;;;;;;;2.01;71.42;98035.09;4981035;28;20035;-58
2021/11/22 03:46:47;;;;;;;2.33;2.03;;;;;;;1.97;70.70;98060.69;4980696;28;20367;-59
2021/11/22 03:49:33;;;;;;;2.80;2.15;;;;;;;2.05;70.17;98048.66;4977070;28;20350;-58
2021/11/22 03:52:19;;;;;;;3.28;2.17;;;;;;;2.04;70.90;98062.28;4971501;28;20030;-58
2021/11/22 03:55:05;;;;;;;4.45;1.90;;;;;;;2.06;70.10;98063.09;4965144;28;20224;-58
2021/11/22 03:57:52;;;;;;;1.90;1.80;;;;;;;1.95;69.62;98065.78;4980341;28;20089;-58
2021/11/22 04:00:38;;;;;;;3.33;2.45;;;;;;;1.94;70.20;98066.69;4985432;28;20030;-59
2021/11/22 04:03:24;;;;;;;3.38;2.13;;;;;;;1.89;70.90;98081.19;4968737;28;20035;-60
2021/11/22 04:06:10;;;;;;;2.28;1.95;;;;;;;1.87;71.89;98086.31;4986710;28;20026;-59
2021/11/22 04:08:57;;;;;;;3.35;2.45;;;;;;;1.81;72.46;98088.09;4985623;28;20065;-60
2021/11/22 04:11:43;;;;;;;3.38;2.50;;;;;;;1.59;72.48;98088.34;4985475;28;20339;-59
2021/11/22 04:14:29;;;;;;;2.83;2.55;;;;;;;1.75;72.91;98094.13;4985390;28;20030;-59
2021/11/22 04:17:15;;;;;;;2.47;2.25;;;;;;;1.78;72.75;98094.09;4984597;28;20023;-57
2021/11/22 04:20:02;;;;;;;3.53;2.70;;;;;;;1.71;72.89;98082.25;4985056;28;20042;-58
2021/11/22 04:22:49;;;;;;;3.28;2.72;;;;;;;1.65;72.67;98108.69;4984410;28;20034;-57
2021/11/22 04:25:35;;;;;;;4.18;2.97;;;;;;;1.57;72.83;98112.19;4983434;28;20219;-58
2021/11/22 04:28:21;;;;;;;3.42;2.97;;;;;;;1.64;72.50;98129.97;4981261;28;20097;-58
2021/11/22 04:31:07;;;;;;;8.20;3.35;;;;;;;1.53;73.20;98108.84;4983054;28;20065;-57
2021/11/22 04:33:54;;;;;;;5.10;3.10;;;;;;;1.74;73.01;98138.38;4982622;28;20026;-58
2021/11/22 04:36:40;;;;;;;3.30;2.63;;;;;;;1.65;72.26;98136.75;4969905;28;20026;-57
2021/11/22 04:39:26;;;;;;;3.88;3.03;;;;;;;1.49;72.67;98142.88;4973236;28;20082;-57
2021/11/22 04:42:12;;;;;;;3.75;2.55;;;;;;;1.63;72.02;98150.41;4985017;28;20019;-57
2021/11/22 04:44:58;;;;;;;4.65;2.35;;;;;;;1.71;72.58;98156.25;4982230;28;20046;-57
2021/11/22 04:47:46;;;;;;;3.33;2.60;;;;;;;1.41;71.94;98112.38;4980079;28;20030;-57
2021/11/22 04:50:32;;;;;;;3.58;2.40;;;;;;;1.68;73.32;98169.03;4979981;28;20027;-57
2021/11/22 04:53:18;;;;;;;3.50;2.40;;;;;;;1.63;71.80;98168.28;4982184;28;20022;-57
2021/11/22 04:56:04;;;;;;;3.15;2.03;;;;;;;1.65;71.24;98176.75;4972870;28;20041;-57
2021/11/22 04:58:50;;;;;;;4.70;2.67;;;;;;;1.65;71.24;98175.03;4982702;28;20023;-57
2021/11/22 05:01:36;;;;;;;2.50;1.92;;;;;;;1.60;71.19;98193.81;4984319;28;20045;-57
2021/11/22 05:04:22;;;;;;;3.40;2.42;;;;;;;1.62;71.04;98192.09;4984442;28;20126;-56
2021/11/22 05:07:08;;;;;;;4.00;2.55;;;;;;;1.66;70.65;98202.25;4983728;28;20142;-57
2021/11/22 05:09:54;;;;;;;2.42;2.03;;;;;;;1.59;71.12;98194.66;4984535;28;20034;-58
2021/11/22 05:12:40;;;;;;;2.80;2.30;;;;;;;1.53;70.04;98210.88;4977381;28;20093;-57
2021/11/22 05:15:26;;;;;;;2.22;1.95;;;;;;;1.50;69.55;98211.75;4976669;28;20026;-58
2021/11/22 05:18:13;;;;;;;2.70;1.92;;;;;;;1.47;69.41;98196.47;4984244;28;20027;-57
2021/11/22 05:20:58;;;;;;;2.53;2.10;;;;;;;1.60;70.14;98229.53;4981500;28;20060;-57
2021/11/22 05:23:44;;;;;;;4.63;2.67;;;;;;;1.46;69.11;98237.31;4982651;28;20039;-57
2021/11/22 05:26:31;;;;;;;2.55;1.95;;;;;;;1.39;69.15;98254.34;4983654;28;20054;-57
2021/11/22 05:29:18;;;;;;;2.63;2.00;;;;;;;1.34;69.53;98258.63;4982854;28;20037;-56
2021/11/22 05:32:04;;;;;;;7.03;2.10;;;;;;;1.37;69.50;98272.22;4979572;28;20034;-57
2021/11/22 05:34:53;;;;;;;3.53;2.30;;;;;;;1.16;69.08;98201.81;4983780;28;20031;-58
2021/11/22 05:37:41;;;;;;;4.47;2.40;;;;;;;1.44;69.53;98257.72;4982593;28;20150;-58
2021/11/22 05:40:27;;;;;;;6.22;2.35;;;;;;;1.44;69.61;98287.47;4980700;28;20055;-57
2021/11/22 05:43:14;;;;;;;4.07;2.08;;;;;;;1.54;68.49;98282.28;4970408;28;20035;-57
2021/11/22 05:46:00;;;;;;;2.42;1.90;;;;;;;1.39;68.90;98292.59;4984650;28;20040;-57
2021/11/22 05:48:46;;;;;;;2.75;1.75;;;;;;;1.38;68.75;98284.13;4982497;28;20030;-57
2021/11/22 05:51:32;;;;;;;3.47;1.90;;;;;;;1.34;69.08;98282.44;4983149;28;20058;-57
2021/11/22 05:54:19;;;;;;;2.42;1.80;;;;;;;1.52;68.85;98306.94;4982388;28;20054;-58
2021/11/22 05:57:05;;;;;;;2.05;1.40;;;;;;;1.42;67.85;98309.59;4982279;28;20046;-56
2021/11/22 05:59:51;;;;;;;1.48;1.38;;;;;;;1.31;68.07;98291.81;4983356;28;20211;-57
2021/11/22 06:02:37;;;;;;;2.15;1.70;;;;;;;1.42;68.28;98314.69;4983332;28;20042;-56
2021/11/22 06:05:23;;;;;;;4.93;1.55;;;;;;;1.47;68.03;98329.13;4982610;28;20062;-57
2021/11/22 06:08:10;;;;;;;4.28;1.38;;;;;;;1.35;68.08;98330.06;4982612;28;20257;-57
2021/11/22 06:10:56;;;;;;;1.45;1.35;;;;;;;1.30;68.18;98346.25;4977834;28;20119;-57
2021/11/22 06:13:42;;;;;;;2.15;1.10;;;;;;;1.26;65.71;98350.50;4981585;28;20058;-57
2021/11/22 06:16:28;;;;;;;1.70;1.10;;;;;;;1.16;64.67;98365.00;4981921;28;20025;-56
2021/11/22 06:19:14;;;;;;;1.13;1.02;;;;;;;1.11;65.20;98366.75;4979874;28;20038;-57
2021/11/22 06:22:00;;;;;;;1.35;1.10;;;;;;;1.01;64.51;98362.50;4979017;28;20034;-57
2021/11/22 06:24:46;;;;;;;4.25;1.60;;;;;;;1.17;64.44;98374.34;4978226;28;20110;-57
2021/11/22 06:27:32;;;;;;;5.75;1.30;;;;;;;1.12;64.09;98381.16;4977086;28;20124;-57
2021/11/22 06:30:19;;;;;;;6.90;1.10;;;;;;;0.92;63.00;98398.25;4979075;28;20026;-56
2021/11/22 06:33:05;;;;;;;0.98;0.88;;;;;;;0.98;62.30;98416.06;4980583;28;20097;-57
2021/11/22 06:35:51;;;;;;;1.55;1.15;;;;;;;0.61;61.34;98422.09;4979207;28;20031;-57
2021/11/22 06:38:37;;;;;;;1.50;1.17;;;;;;;0.65;61.96;98425.50;4978314;28;20252;-57
2021/11/22 06:41:22;;;;;;;4.60;1.10;;;;;;;0.61;60.68;98424.63;4979398;28;20327;-55
2021/11/22 06:44:09;;;;;;;4.47;1.55;;;;;;;0.49;61.22;98450.16;4980075;28;20223;-57
2021/11/22 06:46:55;;;;;;;5.63;1.42;;;;;;;0.58;61.01;98450.13;4979613;28;20019;-56
2021/11/22 06:49:40;;;;;;;2.20;1.35;;;;;;;0.45;61.81;98456.09;4980216;28;20027;-59
2021/11/22 06:52:27;;;;;;;1.42;1.25;;;;;;;0.44;61.56;98454.38;4980760;28;20029;-57
2021/11/22 06:55:14;;;;;;;2.40;1.45;;;;;;;0.26;61.50;98468.00;4981806;28;20039;-57
2021/11/22 06:58:00;;;;;;;2.22;1.10;;;;;;;0.24;61.83;98464.56;4981420;28;20034;-57
2021/11/22 07:00:47;;;;;;;4.75;1.30;;;;;;;0.36;62.60;98496.81;4977203;28;20027;-57
2021/11/22 07:03:33;;;;;;;1.90;1.33;;;;;;;0.55;62.67;98495.13;4980174;28;20057;-57
2021/11/22 07:06:19;;;;;;;6.70;1.83;;;;;;;0.42;61.91;98492.59;4980054;28;20031;-58
2021/11/22 07:09:05;;;;;;;3.95;1.83;;;;;;;0.54;62.76;98496.81;4979924;28;20023;-57
2021/11/22 07:11:51;;;;;;;3.58;1.48;;;;;;;0.40;61.46;98507.03;4975181;28;20045;-58
2021/11/22 07:14:38;;;;;;;1.85;1.10;;;;;;;0.45;60.93;98520.59;4980400;28;20041;-59
2021/11/22 07:17:25;;;;;;;2.63;1.50;;;;;;;0.48;61.37;98525.69;4979812;28;20399;-58
2021/11/22 07:20:11;;;;;;;3.63;1.10;;;;;;;0.39;60.47;98538.44;4981295;28;20038;-57
2021/11/22 07:22:57;;;;;;;3.72;1.33;;;;;;;0.37;61.00;98532.50;4977821;28;20224;-57
2021/11/22 07:25:43;;;;;;;1.70;1.40;;;;;;;0.52;61.50;98546.94;4978999;28;20066;-57
2021/11/22 07:28:29;;;;;;;4.90;1.80;;;;;;;0.40;61.17;98544.34;4981607;28;20041;-58
2021/11/22 07:31:15;;;;;;;5.68;1.40;;;;;;;0.50;60.78;98557.13;4980379;28;20038;-57
2021/11/22 07:34:01;;;;;;;1.85;1.30;;;;;;;0.65;61.55;98542.69;4984314;28;20323;-58
2021/11/22 07:36:47;;;;;;;4.70;1.42;;;;;;;0.68;61.58;98557.97;4985179;28;20118;-58
2021/11/22 07:39:33;;;;;;;5.85;1.85;;;;;;;0.47;61.15;98582.59;4986009;28;20182;-57
2021/11/22 07:42:19;;;;;;;3.85;1.33;;;;;;;0.20;60.83;98565.56;4982825;28;20030;-56
2021/11/22 07:45:06;;;;;;;3.10;1.60;;;;;;;0.32;60.06;98587.66;4985549;28;20223;-58
2021/11/22 07:47:53;;;;;;;9.55;1.85;;;;;;;0.57;60.69;98587.69;4973247;28;20054;-58
2021/11/22 07:50:39;;;;;;;3.88;1.65;;;;;;;0.62;60.63;98607.22;4985644;28;20047;-58
2021/11/22 07:53:25;;;;;;;3.30;1.70;;;;;;;0.62;59.64;98616.56;4979052;28;20331;-58
2021/11/22 07:56:12;;;;;;;1.45;1.10;;;;;;;0.41;58.92;98615.66;4984806;28;20063;-57
2021/11/22 07:58:58;;;;;;;2.42;1.17;;;;;;;0.40;59.92;98591.06;4985212;28;20089;-58
2021/11/22 08:01:44;;;;;;;4.38;1.85;;;;;;;0.56;59.19;98625.03;4969906;28;20089;-58
2021/11/22 08:04:30;;;;;;;5.47;1.50;;;;;;;0.79;59.84;98629.31;4974269;28;20035;-57
2021/11/22 08:07:21;;;;;;;3.00;1.40;;;;;;;0.47;59.63;98642.84;4971128;28;20033;-58
2021/11/22 08:10:47;;;;;;;1.48;1.20;;;;;;;0.46;59.37;98636.06;4982891;28;20023;-57
2021/11/22 08:13:22;;;;;;;3.50;1.95;;;;;;;0.48;60.21;98647.94;4971763;28;20281;-58
2021/11/22 08:16:08;;;;;;;3.05;1.50;;;;;;;0.59;60.05;98645.44;4976933;28;20026;-57
2021/11/22 08:18:54;;;;;;;2.13;1.55;;;;;;;0.37;59.61;98651.31;4984035;28;20031;-57
2021/11/22 08:21:40;;;;;;;2.20;1.35;;;;;;;0.49;59.71;98657.28;4974617;28;20039;-57
2021/11/22 08:24:26;;;;;;;4.10;1.60;;;;;;;0.60;60.35;98659.00;4984584;28;20180;-58
2021/11/22 08:27:12;;;;;;;3.63;1.50;;;;;;;0.46;60.73;98666.63;4981296;28;20031;-56
2021/11/22 08:30:10;;;;;;;4.43;1.40;;;;;;;0.55;59.72;98687.03;4985145;28;20035;-56
2021/11/22 08:32:57;;;;;;;3.95;1.90;;;;;;;0.61;59.02;98676.00;4983965;28;20040;-58
2021/11/22 08:35:47;;;;;;;2.55;1.40;;;;;;;0.64;60.21;98674.31;4974725;28;20111;-57
2021/11/22 08:38:33;;;;;;;2.65;1.83;;;;;;;0.92;59.01;98676.06;4980535;28;20061;-57
2021/11/22 08:41:20;;;;;;;1.63;1.50;;;;;;;1.21;56.71;98673.50;4970510;28;20332;-57
2021/11/22 08:44:06;;;;;;;1.25;1.15;;;;;;;0.90;56.03;98677.72;4982890;28;20078;-57
2021/11/22 08:46:52;;;;;;;6.68;1.55;;;;;;;0.83;56.83;98675.19;4985397;28;20041;-56
2021/11/22 08:49:38;;;;;;;2.35;1.30;;;;;;;1.00;57.61;98685.41;4984079;28;20042;-56
2021/11/22 08:52:25;;;;;;;2.90;1.60;;;;;;;0.86;58.51;98675.19;4984337;28;20243;-57
2021/11/22 08:55:12;;;;;;;2.80;1.55;;;;;;;0.88;57.60;98674.34;4984611;28;20034;-56
2021/11/22 08:57:58;;;;;;;4.13;1.50;;;;;;;0.88;57.73;98687.94;4984935;28;20037;-58
2021/11/22 09:00:44;;;;;;;2.33;1.40;;;;;;;1.01;57.88;98692.22;4967324;28;20062;-57
2021/11/22 09:03:30;;;;;;;2.38;1.67;;;;;;;0.96;58.00;98703.25;4984747;28;20244;-57
2021/11/22 09:06:16;;;;;;;8.88;2.20;;;;;;;0.86;58.59;98698.13;4984009;28;20029;-57
2021/11/22 09:09:05;;;;;;;5.07;1.55;;;;;;;0.47;57.91;98653.91;4980844;28;20022;-57
2021/11/22 09:11:51;;;;;;;2.63;1.50;;;;;;;0.80;58.73;98715.97;4983753;28;20038;-57
2021/11/22 09:14:37;;;;;;;2.38;1.63;;;;;;;0.79;59.11;98716.81;4972164;28;20137;-58
2021/11/22 09:17:23;;;;;;;1.95;1.25;;;;;;;0.88;58.70;98722.78;4977696;28;20101;-58
2021/11/22 09:20:09;;;;;;;5.13;1.55;;;;;;;0.77;58.90;98728.69;4972888;28;20029;-57
2021/11/22 09:23:01;;;;;;;5.07;2.03;;;;;;;0.78;61.10;98732.09;4982843;28;20023;-58
2021/11/22 09:25:49;;;;;;;6.07;2.38;;;;;;;0.83;62.04;98738.91;4978656;28;20232;-57
2021/11/22 09:28:35;;;;;;;3.80;1.92;;;;;;;1.00;62.42;98745.75;4978434;28;20014;-58
2021/11/22 09:31:21;;;;;;;2.67;2.08;;;;;;;1.11;62.58;98741.50;4983934;28;20057;-57
2021/11/22 09:34:07;;;;;;;5.88;1.73;;;;;;;0.98;62.49;98748.28;4982050;28;20027;-57
2021/11/22 09:36:53;;;;;;;3.67;2.00;;;;;;;0.84;62.50;98755.03;4982601;28;20034;-57
2021/11/22 09:39:39;;;;;;;3.35;2.08;;;;;;;0.58;61.92;98758.34;4967161;28;20103;-57
2021/11/22 09:42:25;;;;;;;4.20;2.10;;;;;;;0.61;61.93;98770.25;4961132;28;20023;-57
2021/11/22 09:45:11;;;;;;;6.05;2.03;;;;;;;0.48;61.47;98767.66;4972851;28;20126;-57
2021/11/22 09:47:59;;;;;;;5.25;2.20;;;;;;;0.68;61.68;98775.41;4980723;28;20045;-57
2021/11/22 09:50:45;;;;;;;4.40;2.25;;;;;;;0.85;61.88;98772.88;4981468;28;20043;-58
2021/11/22 09:53:32;;;;;;;7.63;2.53;;;;;;;0.79;61.63;98782.22;4980644;28;20034;-57
2021/11/22 09:56:18;;;;;;;3.70;1.83;;;;;;;0.72;59.45;98786.44;4981848;28;20030;-58
2021/11/22 09:59:04;;;;;;;10.80;2.40;;;;;;;0.88;58.66;98781.38;4983141;28;20374;-57
2021/11/22 10:01:55;;;;;;;6.85;1.80;;;;;;;0.41;57.91;98729.44;4978035;28;20034;-58
2021/11/22 10:04:41;;;;;;;2.13;1.30;;;;;;;0.69;54.59;98807.66;4983078;28;20053;-57
2021/11/22 10:07:34;;;;;;;4.15;1.40;;;;;;;0.77;55.12;98819.56;4970414;28;20034;-56
2021/11/22 10:10:19;;;;;;;1.88;1.20;;;;;;;0.74;52.51;98814.47;4969972;28;20031;-58
2021/11/22 10:13:25;;;;;;;1.77;1.10;;;;;;;0.52;51.97;98799.09;4982172;28;20058;-57
2021/11/22 10:16:11;;;;;;;6.20;1.30;;;;;;;0.45;54.59;98833.03;4982512;28;20031;-58
2021/11/22 10:18:59;;;;;;;5.07;1.40;;;;;;;0.56;53.96;98839.03;4983374;28;20078;-58
2021/11/22 10:21:45;;;;;;;5.13;1.52;;;;;;;0.44;53.69;98827.09;4975701;28;20037;-58
2021/11/22 10:24:31;;;;;;;8.73;2.30;;;;;;;0.43;53.84;98821.94;4982706;28;20031;-57
2021/11/22 10:27:37;;;;;;;19.50;2.10;;;;;;;-0.03;52.88;98769.06;4982532;28;20023;-58
2021/11/22 10:30:27;;;;;;;2.35;1.40;;;;;;;-0.10;52.43;98802.97;4978406;28;20199;-58
2021/11/22 10:33:16;;;;;;;2.08;1.20;;;;;;;-0.08;52.54;98797.06;4968686;28;20031;-59
2021/11/22 10:36:11;;;;;;;4.10;1.42;;;;;;;0.30;52.78;98874.50;4968181;28;20030;-59
2021/11/22 10:39:00;;;;;;;1.80;1.20;;;;;;;0.27;52.24;98859.22;4975490;28;20806;-57
2021/11/22 10:41:46;;;;;;;3.30;1.20;;;;;;;0.02;52.74;98836.16;4971459;28;20108;-57
2021/11/22 10:44:34;;;;;;;4.68;1.33;;;;;;;0.33;53.58;98872.00;4980943;28;20047;-58
2021/11/22 10:47:20;;;;;;;1.98;1.15;;;;;;;0.40;53.82;98866.09;4980943;28;20049;-58
2021/11/22 10:50:07;;;;;;;3.05;1.60;;;;;;;0.56;53.00;98861.09;4982365;28;20045;-58
2021/11/22 10:53:00;;;;;;;3.63;1.67;;;;;;;0.18;53.21;98793.81;4966177;28;20023;-58
2021/11/22 10:55:48;;;;;;;2.83;1.40;;;;;;;0.64;53.83;98867.94;4966359;28;20195;-58
2021/11/22 10:58:56;;;;;;;4.60;1.52;;;;;;;0.42;54.39;98813.47;4981382;28;20023;-58
2021/11/22 11:01:47;;;;;;;5.68;1.83;;;;;;;0.76;54.17;98899.44;4978897;28;20118;-58
2021/11/22 11:04:37;;;;;;;3.60;1.60;;;;;;;0.88;53.88;98878.25;4981180;28;20023;-58
2021/11/22 11:07:28;;;;;;;6.07;1.63;;;;;;;0.87;54.15;98887.59;4981903;28;20030;-57
2021/11/22 11:10:22;;;;;;;3.20;1.73;;;;;;;0.52;53.10;98827.09;4964046;28;20028;-58
2021/11/22 11:13:08;;;;;;;8.27;1.83;;;;;;;0.84;53.82;98892.66;4983448;28;20037;-58
2021/11/22 11:16:09;;;;;;;2.38;1.50;;;;;;;0.79;53.14;98899.44;4977193;28;20093;-57
2021/11/22 11:19:00;;;;;;;3.20;1.40;;;;;;;0.80;53.59;98901.16;4965530;28;20026;-58
2021/11/22 11:21:48;;;;;;;3.30;1.33;;;;;;;0.84;54.05;98921.56;4968561;28;20094;-58
2021/11/22 11:24:35;;;;;;;3.03;1.45;;;;;;;0.65;53.80;98918.03;4979038;28;20019;-56
2021/11/22 11:27:21;;;;;;;2.58;1.50;;;;;;;0.55;53.56;98928.19;4970458;28;20031;-58
2021/11/22 11:30:08;;;;;;;3.30;1.17;;;;;;;0.46;52.70;98937.44;4981615;28;20019;-58
2021/11/22 11:32:54;;;;;;;1.98;1.30;;;;;;;0.22;52.43;98922.84;4980303;28;20348;-58
2021/11/22 11:35:46;;;;;;;3.50;1.40;;;;;;;0.22;51.71;98933.03;4979130;28;20030;-56
2021/11/22 11:39:01;;;;;;;3.60;1.40;;;;;;;0.41;52.06;98926.38;4977942;28;20410;-57
2021/11/22 11:42:05;;;;;;;2.13;1.33;;;;;;;0.10;53.83;98915.09;4948157;28;20050;-57
2021/11/22 11:45:18;;;;;;;2.47;1.20;;;;;;;0.33;53.72;98938.22;4981403;28;20354;-59
2021/11/22 11:48:39;;;;;;;3.20;1.40;;;;;;;0.20;52.51;98944.91;4981255;28;20054;-59
2021/11/22 11:51:40;;;;;;;5.57;1.50;;;;;;;0.25;53.06;98952.56;4971462;28;20023;-57
2021/11/22 11:54:28;;;;;;;2.38;1.50;;;;;;;0.38;52.74;98964.56;4981404;28;20033;-57
2021/11/22 11:57:19;;;;;;;5.03;2.03;;;;;;;0.14;53.05;98934.66;4981252;28;20258;-58
2021/11/22 12:00:24;;;;;;;6.72;2.42;;;;;;;0.28;53.05;98970.41;4982333;28;20077;-58
2021/11/22 12:03:10;;;;;;;4.38;1.90;;;;;;;0.28;52.82;98975.50;4980127;28;20086;-58
2021/11/22 12:05:58;;;;;;;5.82;1.80;;;;;;;0.35;53.39;98984.91;4981762;28;20043;-57
2021/11/22 12:08:44;;;;;;;4.10;1.60;;;;;;;0.13;53.36;98966.91;4977954;28;20028;-58
2021/11/22 12:11:34;;;;;;;1.38;1.23;;;;;;;-0.07;53.49;98928.56;4981367;28;20046;-58
2021/11/22 12:14:54;;;;;;;7.53;1.83;;;;;;;0.30;53.72;98991.63;4976683;28;20034;-58
2021/11/22 12:17:40;;;;;;;1.77;1.30;;;;;;;0.24;54.13;98994.16;4983220;28;20031;-57
2021/11/22 12:20:26;;;;;;;5.30;1.40;;;;;;;0.31;53.93;98996.78;4984587;28;20027;-58
2021/11/22 12:23:16;;;;;;;4.47;1.85;;;;;;;0.25;54.59;98993.31;4977297;28;20023;-59
2021/11/22 12:26:03;;;;;;;4.50;1.50;;;;;;;0.24;54.41;99006.88;4995612;28;20023;-57
2021/11/22 12:28:50;;;;;;;7.40;1.60;;;;;;;0.31;55.42;99009.50;4985422;28;20130;-58
2021/11/22 12:31:44;;;;;;;1.42;1.20;;;;;;;0.33;56.09;99009.53;4985711;28;20109;-58
2021/11/22 12:34:34;;;;;;;3.33;1.30;;;;;;;0.23;55.71;99028.94;4984483;28;20023;-58
2021/11/22 12:37:33;;;;;;;3.25;1.48;;;;;;;-0.10;55.82;98966.69;4970484;28;20049;-58
2021/11/22 12:40:19;;;;;;;3.25;1.45;;;;;;;0.25;56.10;99034.06;4983574;28;20049;-58
2021/11/22 12:43:05;;;;;;;2.47;1.42;;;;;;;0.12;56.82;99039.00;4984226;28;20038;-57
2021/11/22 12:45:58;;;;;;;4.68;2.08;;;;;;;0.08;56.25;99041.53;4984256;28;20045;-58
2021/11/22 12:48:47;;;;;;;3.30;1.50;;;;;;;0.22;56.85;99041.66;4975976;28;20038;-59
2021/11/22 12:51:44;;;;;;;3.00;1.67;;;;;;;0.22;57.66;99049.31;4983624;28;20094;-58
2021/11/22 12:54:46;;;;;;;6.00;2.20;;;;;;;-0.11;56.00;98997.22;4979175;28;20066;-57
2021/11/22 12:57:36;;;;;;;7.47;3.83;;;;;;;0.37;57.10;99062.19;4984204;28;20192;-58
2021/11/22 13:00:35;;;;;;;9.13;3.42;;;;;;;0.45;56.88;99058.00;4983998;28;20062;-57
2021/11/22 13:03:23;;;;;;;8.85;3.20;;;;;;;0.30;57.51;99078.22;4983719;28;20050;-57
2021/11/22 13:06:16;;;;;;;8.90;2.33;;;;;;;0.26;55.94;99076.50;4984595;28;20260;-58
2021/11/22 13:09:02;;;;;;;3.10;1.90;;;;;;;0.02;54.23;99082.19;4967550;28;20028;-57
2021/11/22 13:11:51;;;;;;;1.27;1.17;;;;;;;-0.38;53.56;99027.44;4986680;28;20035;-57
2021/11/22 13:14:48;;;;;;;2.58;2.13;;;;;;;-0.18;53.55;99073.47;4967339;28;20352;-56
2021/11/22 13:17:34;;;;;;;7.78;1.83;;;;;;;0.05;54.04;99085.59;4956228;28;20205;-57
2021/11/22 13:20:20;;;;;;;7.70;2.22;;;;;;;0.12;53.46;99102.66;4983732;28;20029;-57